sensor_id;sensor_type;location;lat;lon;timestamp;temperature;humidity
68433;DHT22;55412;51.350;17.056;2023-02-11T00:00:15;0.40;79.50
68433;DHT22;55412;51.350;17.056;2023-02-11T00:02:42;0.40;79.80
68433;DHT22;55412;51.350;17.056;2023-02-11T00:05:09;0.40;79.80
68433;DHT22;55412;51.350;17.056;2023-02-11T00:07:35;0.50;79.50
68433;DHT22;55412;51.350;17.056;2023-02-11T00:10:02;0.50;79.40
68433;DHT22;55412;51.350;17.056;2023-02-11T00:12:30;0.50;79.60
68433;DHT22;55412;51.350;17.056;2023-02-11T00:14:56;0.60;79.40
68433;DHT22;55412;51.350;17.056;2023-02-11T00:17:22;0.70;78.90
68433;DHT22;55412;51.350;17.056;2023-02-11T00:19:49;0.70;78.50
68433;DHT22;55412;51.350;17.056;2023-02-11T00:22:16;0.70;78.50
68433;DHT22;55412;51.350;17.056;2023-02-11T00:24:43;0.70;78.00
68433;DHT22;55412;51.350;17.056;2023-02-11T00:27:09;0.70;78.50
68433;DHT22;55412;51.350;17.056;2023-02-11T00:29:38;0.70;78.10
68433;DHT22;55412;51.350;17.056;2023-02-11T00:32:04;0.70;78.40
68433;DHT22;55412;51.350;17.056;2023-02-11T00:34:32;0.70;78.00
68433;DHT22;55412;51.350;17.056;2023-02-11T00:36:58;0.70;77.80
68433;DHT22;55412;51.350;17.056;2023-02-11T00:39:24;0.70;78.20
68433;DHT22;55412;51.350;17.056;2023-02-11T00:41:51;0.70;78.50
68433;DHT22;55412;51.350;17.056;2023-02-11T00:44:17;0.70;78.40
68433;DHT22;55412;51.350;17.056;2023-02-11T00:46:43;0.70;78.40
68433;DHT22;55412;51.350;17.056;2023-02-11T00:49:09;0.80;78.30
68433;DHT22;55412;51.350;17.056;2023-02-11T00:51:36;0.80;78.10
68433;DHT22;55412;51.350;17.056;2023-02-11T00:54:02;0.80;77.80
68433;DHT22;55412;51.350;17.056;2023-02-11T00:56:28;0.80;77.60
68433;DHT22;55412;51.350;17.056;2023-02-11T00:58:56;0.80;77.60
68433;DHT22;55412;51.350;17.056;2023-02-11T01:01:22;0.90;77.70
68433;DHT22;55412;51.350;17.056;2023-02-11T01:03:49;0.80;77.40
68433;DHT22;55412;51.350;17.056;2023-02-11T01:06:19;0.80;77.60
68433;DHT22;55412;51.350;17.056;2023-02-11T01:08:48;0.80;77.70
68433;DHT22;55412;51.350;17.056;2023-02-11T01:11:17;0.80;77.70
68433;DHT22;55412;51.350;17.056;2023-02-11T01:13:54;0.80;77.80
68433;DHT22;55412;51.350;17.056;2023-02-11T01:16:28;0.70;78.20
68433;DHT22;55412;51.350;17.056;2023-02-11T01:18:54;0.70;78.50
68433;DHT22;55412;51.350;17.056;2023-02-11T01:21:20;0.60;78.60
68433;DHT22;55412;51.350;17.056;2023-02-11T01:23:46;0.60;78.70
68433;DHT22;55412;51.350;17.056;2023-02-11T01:26:12;0.60;78.70
68433;DHT22;55412;51.350;17.056;2023-02-11T01:28:38;0.60;78.80
68433;DHT22;55412;51.350;17.056;2023-02-11T01:31:04;0.50;79.30
68433;DHT22;55412;51.350;17.056;2023-02-11T01:33:30;0.50;79.80
68433;DHT22;55412;51.350;17.056;2023-02-11T01:36:01;0.40;80.30
68433;DHT22;55412;51.350;17.056;2023-02-11T01:38:29;0.40;80.60
68433;DHT22;55412;51.350;17.056;2023-02-11T01:43:33;0.40;80.70
68433;DHT22;55412;51.350;17.056;2023-02-11T01:46:25;0.40;80.40
68433;DHT22;55412;51.350;17.056;2023-02-11T01:49:06;0.40;80.40
68433;DHT22;55412;51.350;17.056;2023-02-11T01:51:41;0.40;80.60
68433;DHT22;55412;51.350;17.056;2023-02-11T01:54:16;0.40;80.80
68433;DHT22;55412;51.350;17.056;2023-02-11T01:57:04;0.50;80.60
68433;DHT22;55412;51.350;17.056;2023-02-11T02:00:13;0.50;80.00
68433;DHT22;55412;51.350;17.056;2023-02-11T02:02:57;0.60;80.10
68433;DHT22;55412;51.350;17.056;2023-02-11T02:06:00;0.60;79.80
68433;DHT22;55412;51.350;17.056;2023-02-11T02:09:01;0.70;79.40
68433;DHT22;55412;51.350;17.056;2023-02-11T02:11:30;0.80;78.50
68433;DHT22;55412;51.350;17.056;2023-02-11T02:13:56;0.90;78.20
68433;DHT22;55412;51.350;17.056;2023-02-11T02:16:31;0.90;77.70
68433;DHT22;55412;51.350;17.056;2023-02-11T02:34:29;1.30;75.40
68433;DHT22;55412;51.350;17.056;2023-02-11T02:37:14;1.30;75.10
68433;DHT22;55412;51.350;17.056;2023-02-11T02:39:45;1.30;74.80
68433;DHT22;55412;51.350;17.056;2023-02-11T02:42:13;1.40;74.50
68433;DHT22;55412;51.350;17.056;2023-02-11T02:44:47;1.40;74.40
68433;DHT22;55412;51.350;17.056;2023-02-11T02:47:17;1.40;74.10
68433;DHT22;55412;51.350;17.056;2023-02-11T02:49:44;1.50;73.70
68433;DHT22;55412;51.350;17.056;2023-02-11T03:04:16;1.60;72.90
68433;DHT22;55412;51.350;17.056;2023-02-11T03:09:55;1.60;72.60
68433;DHT22;55412;51.350;17.056;2023-02-11T03:12:26;1.70;72.50
68433;DHT22;55412;51.350;17.056;2023-02-11T03:14:55;1.70;72.40
68433;DHT22;55412;51.350;17.056;2023-02-11T03:17:22;1.70;72.40
68433;DHT22;55412;51.350;17.056;2023-02-11T03:19:49;1.70;72.60
68433;DHT22;55412;51.350;17.056;2023-02-11T03:22:23;1.70;72.30
68433;DHT22;55412;51.350;17.056;2023-02-11T03:24:50;1.70;72.30
68433;DHT22;55412;51.350;17.056;2023-02-11T03:27:33;1.80;72.20
68433;DHT22;55412;51.350;17.056;2023-02-11T03:30:17;1.80;71.70
68433;DHT22;55412;51.350;17.056;2023-02-11T03:33:06;1.80;71.50
68433;DHT22;55412;51.350;17.056;2023-02-11T03:36:05;1.90;71.60
68433;DHT22;55412;51.350;17.056;2023-02-11T03:38:38;1.90;71.60
68433;DHT22;55412;51.350;17.056;2023-02-11T03:41:11;1.90;71.40
68433;DHT22;55412;51.350;17.056;2023-02-11T03:43:45;1.90;71.60
68433;DHT22;55412;51.350;17.056;2023-02-11T03:46:20;1.90;71.60
68433;DHT22;55412;51.350;17.056;2023-02-11T03:48:53;2.00;71.60
68433;DHT22;55412;51.350;17.056;2023-02-11T03:51:23;2.00;71.40
68433;DHT22;55412;51.350;17.056;2023-02-11T03:53:51;2.00;71.50
68433;DHT22;55412;51.350;17.056;2023-02-11T03:56:24;2.00;71.60
68433;DHT22;55412;51.350;17.056;2023-02-11T03:58:52;2.00;71.60
68433;DHT22;55412;51.350;17.056;2023-02-11T04:01:18;2.00;71.60
68433;DHT22;55412;51.350;17.056;2023-02-11T04:03:44;2.00;71.50
68433;DHT22;55412;51.350;17.056;2023-02-11T04:06:10;2.00;71.70
68433;DHT22;55412;51.350;17.056;2023-02-11T04:08:36;2.00;71.70
68433;DHT22;55412;51.350;17.056;2023-02-11T04:11:02;1.90;71.90
68433;DHT22;55412;51.350;17.056;2023-02-11T04:13:29;2.00;71.90
68433;DHT22;55412;51.350;17.056;2023-02-11T04:15:55;2.00;72.00
68433;DHT22;55412;51.350;17.056;2023-02-11T04:18:21;2.00;71.90
68433;DHT22;55412;51.350;17.056;2023-02-11T04:20:49;2.00;71.90
68433;DHT22;55412;51.350;17.056;2023-02-11T04:23:15;2.00;71.90
68433;DHT22;55412;51.350;17.056;2023-02-11T04:25:41;1.90;71.80
68433;DHT22;55412;51.350;17.056;2023-02-11T04:28:07;1.90;72.10
68433;DHT22;55412;51.350;17.056;2023-02-11T04:30:33;2.00;72.00
68433;DHT22;55412;51.350;17.056;2023-02-11T04:32:59;1.90;72.20
68433;DHT22;55412;51.350;17.056;2023-02-11T04:35:25;2.00;72.10
68433;DHT22;55412;51.350;17.056;2023-02-11T04:37:51;2.00;72.00
68433;DHT22;55412;51.350;17.056;2023-02-11T04:40:17;2.00;71.80
68433;DHT22;55412;51.350;17.056;2023-02-11T04:42:43;2.00;72.00
68433;DHT22;55412;51.350;17.056;2023-02-11T04:45:09;1.90;72.00
68433;DHT22;55412;51.350;17.056;2023-02-11T04:47:35;2.00;71.90
68433;DHT22;55412;51.350;17.056;2023-02-11T04:50:02;1.90;72.20
68433;DHT22;55412;51.350;17.056;2023-02-11T04:52:29;1.90;72.40
68433;DHT22;55412;51.350;17.056;2023-02-11T04:54:55;1.90;72.60
68433;DHT22;55412;51.350;17.056;2023-02-11T04:57:21;2.00;72.70
68433;DHT22;55412;51.350;17.056;2023-02-11T04:59:47;2.00;72.70
68433;DHT22;55412;51.350;17.056;2023-02-11T05:02:13;2.00;72.80
68433;DHT22;55412;51.350;17.056;2023-02-11T05:04:39;2.00;73.10
68433;DHT22;55412;51.350;17.056;2023-02-11T05:07:05;2.00;73.10
68433;DHT22;55412;51.350;17.056;2023-02-11T05:09:31;2.00;73.40
68433;DHT22;55412;51.350;17.056;2023-02-11T05:11:57;2.00;73.60
68433;DHT22;55412;51.350;17.056;2023-02-11T05:14:23;2.00;73.90
68433;DHT22;55412;51.350;17.056;2023-02-11T05:16:49;2.10;73.90
68433;DHT22;55412;51.350;17.056;2023-02-11T05:19:15;2.10;73.90
68433;DHT22;55412;51.350;17.056;2023-02-11T05:21:41;2.20;73.90
68433;DHT22;55412;51.350;17.056;2023-02-11T05:24:07;2.20;73.80
68433;DHT22;55412;51.350;17.056;2023-02-11T05:26:33;2.20;73.70
68433;DHT22;55412;51.350;17.056;2023-02-11T05:28:59;2.30;73.80
68433;DHT22;55412;51.350;17.056;2023-02-11T05:31:25;2.30;73.60
68433;DHT22;55412;51.350;17.056;2023-02-11T05:33:51;2.30;73.50
68433;DHT22;55412;51.350;17.056;2023-02-11T05:36:17;2.30;73.50
68433;DHT22;55412;51.350;17.056;2023-02-11T05:38:43;2.40;73.50
68433;DHT22;55412;51.350;17.056;2023-02-11T05:41:10;2.40;73.60
68433;DHT22;55412;51.350;17.056;2023-02-11T05:43:36;2.40;73.60
68433;DHT22;55412;51.350;17.056;2023-02-11T05:46:03;2.40;73.70
68433;DHT22;55412;51.350;17.056;2023-02-11T05:48:30;2.40;74.20
68433;DHT22;55412;51.350;17.056;2023-02-11T05:50:56;2.40;74.60
68433;DHT22;55412;51.350;17.056;2023-02-11T05:53:22;2.40;75.30
68433;DHT22;55412;51.350;17.056;2023-02-11T05:55:48;2.50;76.00
68433;DHT22;55412;51.350;17.056;2023-02-11T05:58:15;2.40;77.10
68433;DHT22;55412;51.350;17.056;2023-02-11T06:00:41;2.50;77.40
68433;DHT22;55412;51.350;17.056;2023-02-11T06:03:07;2.50;78.10
68433;DHT22;55412;51.350;17.056;2023-02-11T06:05:33;2.60;78.60
68433;DHT22;55412;51.350;17.056;2023-02-11T06:07:59;2.60;78.80
68433;DHT22;55412;51.350;17.056;2023-02-11T06:10:26;2.70;78.80
68433;DHT22;55412;51.350;17.056;2023-02-11T06:12:52;2.70;79.30
68433;DHT22;55412;51.350;17.056;2023-02-11T06:15:18;2.70;79.60
68433;DHT22;55412;51.350;17.056;2023-02-11T06:17:44;2.70;79.60
68433;DHT22;55412;51.350;17.056;2023-02-11T06:20:10;2.80;79.60
68433;DHT22;55412;51.350;17.056;2023-02-11T06:22:36;2.80;79.90
68433;DHT22;55412;51.350;17.056;2023-02-11T06:25:03;2.80;79.80
68433;DHT22;55412;51.350;17.056;2023-02-11T06:27:29;2.90;79.80
68433;DHT22;55412;51.350;17.056;2023-02-11T06:29:55;2.90;79.80
68433;DHT22;55412;51.350;17.056;2023-02-11T06:32:21;2.90;80.00
68433;DHT22;55412;51.350;17.056;2023-02-11T06:34:47;2.90;79.80
68433;DHT22;55412;51.350;17.056;2023-02-11T06:37:13;2.90;80.20
68433;DHT22;55412;51.350;17.056;2023-02-11T06:39:39;2.90;80.30
68433;DHT22;55412;51.350;17.056;2023-02-11T06:42:05;2.90;80.30
68433;DHT22;55412;51.350;17.056;2023-02-11T06:44:31;3.00;80.30
68433;DHT22;55412;51.350;17.056;2023-02-11T06:46:57;3.00;80.40
68433;DHT22;55412;51.350;17.056;2023-02-11T06:49:23;3.00;80.40
68433;DHT22;55412;51.350;17.056;2023-02-11T06:51:49;3.00;80.40
68433;DHT22;55412;51.350;17.056;2023-02-11T06:54:15;3.10;80.20
68433;DHT22;55412;51.350;17.056;2023-02-11T06:56:41;3.10;80.30
68433;DHT22;55412;51.350;17.056;2023-02-11T06:59:17;3.10;80.10
68433;DHT22;55412;51.350;17.056;2023-02-11T07:01:45;3.10;80.00
68433;DHT22;55412;51.350;17.056;2023-02-11T07:04:11;3.10;80.00
68433;DHT22;55412;51.350;17.056;2023-02-11T07:06:39;3.20;80.20
68433;DHT22;55412;51.350;17.056;2023-02-11T07:09:06;3.20;80.10
68433;DHT22;55412;51.350;17.056;2023-02-11T07:11:33;3.20;80.30
68433;DHT22;55412;51.350;17.056;2023-02-11T07:14:02;3.30;80.50
68433;DHT22;55412;51.350;17.056;2023-02-11T07:16:31;3.30;80.40
68433;DHT22;55412;51.350;17.056;2023-02-11T07:18:58;3.30;80.50
68433;DHT22;55412;51.350;17.056;2023-02-11T07:21:24;3.30;81.00
68433;DHT22;55412;51.350;17.056;2023-02-11T07:23:50;3.30;81.20
68433;DHT22;55412;51.350;17.056;2023-02-11T07:26:19;3.30;81.20
68433;DHT22;55412;51.350;17.056;2023-02-11T07:28:51;3.40;81.10
68433;DHT22;55412;51.350;17.056;2023-02-11T07:31:19;3.40;80.90
68433;DHT22;55412;51.350;17.056;2023-02-11T07:33:48;3.40;81.10
68433;DHT22;55412;51.350;17.056;2023-02-11T07:36:15;3.40;81.40
68433;DHT22;55412;51.350;17.056;2023-02-11T07:38:42;3.40;81.50
68433;DHT22;55412;51.350;17.056;2023-02-11T07:41:11;3.40;81.70
68433;DHT22;55412;51.350;17.056;2023-02-11T07:43:41;3.40;81.80
68433;DHT22;55412;51.350;17.056;2023-02-11T07:46:10;3.50;82.00
68433;DHT22;55412;51.350;17.056;2023-02-11T07:48:41;3.50;82.20
68433;DHT22;55412;51.350;17.056;2023-02-11T07:51:19;3.50;82.40
68433;DHT22;55412;51.350;17.056;2023-02-11T07:53:54;3.50;82.60
68433;DHT22;55412;51.350;17.056;2023-02-11T07:56:22;3.60;82.50
68433;DHT22;55412;51.350;17.056;2023-02-11T07:58:49;3.60;82.50
68433;DHT22;55412;51.350;17.056;2023-02-11T08:01:21;3.60;82.70
68433;DHT22;55412;51.350;17.056;2023-02-11T08:03:50;3.60;83.20
68433;DHT22;55412;51.350;17.056;2023-02-11T08:06:18;3.60;83.30
68433;DHT22;55412;51.350;17.056;2023-02-11T08:08:45;3.60;84.00
68433;DHT22;55412;51.350;17.056;2023-02-11T08:11:23;3.50;84.70
68433;DHT22;55412;51.350;17.056;2023-02-11T08:13:51;3.50;85.40
68433;DHT22;55412;51.350;17.056;2023-02-11T08:16:23;3.50;86.10
68433;DHT22;55412;51.350;17.056;2023-02-11T08:18:51;3.50;86.60
68433;DHT22;55412;51.350;17.056;2023-02-11T08:21:18;3.50;86.90
68433;DHT22;55412;51.350;17.056;2023-02-11T08:23:46;3.50;87.50
68433;DHT22;55412;51.350;17.056;2023-02-11T08:26:16;3.50;87.80
68433;DHT22;55412;51.350;17.056;2023-02-11T08:28:45;3.50;87.90
68433;DHT22;55412;51.350;17.056;2023-02-11T08:31:17;3.60;88.70
68433;DHT22;55412;51.350;17.056;2023-02-11T08:33:44;3.60;88.90
68433;DHT22;55412;51.350;17.056;2023-02-11T08:36:23;3.60;89.80
68433;DHT22;55412;51.350;17.056;2023-02-11T08:38:50;3.60;90.40
68433;DHT22;55412;51.350;17.056;2023-02-11T08:41:19;3.60;91.00
68433;DHT22;55412;51.350;17.056;2023-02-11T08:43:45;3.60;91.20
68433;DHT22;55412;51.350;17.056;2023-02-11T08:46:14;3.70;91.70
68433;DHT22;55412;51.350;17.056;2023-02-11T08:48:41;3.70;92.00
68433;DHT22;55412;51.350;17.056;2023-02-11T08:51:11;3.70;91.60
68433;DHT22;55412;51.350;17.056;2023-02-11T08:53:39;3.70;92.00
68433;DHT22;55412;51.350;17.056;2023-02-11T08:56:06;3.80;92.20
68433;DHT22;55412;51.350;17.056;2023-02-11T08:58:33;3.90;92.30
68433;DHT22;55412;51.350;17.056;2023-02-11T09:00:59;3.90;91.80
68433;DHT22;55412;51.350;17.056;2023-02-11T09:03:25;4.00;91.40
68433;DHT22;55412;51.350;17.056;2023-02-11T09:05:51;4.10;91.60
68433;DHT22;55412;51.350;17.056;2023-02-11T09:08:19;4.10;90.90
68433;DHT22;55412;51.350;17.056;2023-02-11T09:10:45;4.20;90.50
68433;DHT22;55412;51.350;17.056;2023-02-11T09:13:11;4.20;90.10
68433;DHT22;55412;51.350;17.056;2023-02-11T09:15:37;4.20;90.30
68433;DHT22;55412;51.350;17.056;2023-02-11T09:18:04;4.30;90.00
68433;DHT22;55412;51.350;17.056;2023-02-11T09:20:30;4.40;89.90
68433;DHT22;55412;51.350;17.056;2023-02-11T09:22:57;4.50;89.10
68433;DHT22;55412;51.350;17.056;2023-02-11T09:25:24;4.50;88.50
68433;DHT22;55412;51.350;17.056;2023-02-11T09:27:50;4.60;88.70
68433;DHT22;55412;51.350;17.056;2023-02-11T09:30:18;4.60;88.60
68433;DHT22;55412;51.350;17.056;2023-02-11T09:32:44;4.60;88.00
68433;DHT22;55412;51.350;17.056;2023-02-11T09:35:10;4.60;87.70
68433;DHT22;55412;51.350;17.056;2023-02-11T09:37:36;4.60;87.80
68433;DHT22;55412;51.350;17.056;2023-02-11T09:40:02;4.60;87.70
68433;DHT22;55412;51.350;17.056;2023-02-11T09:45:36;4.70;87.60
68433;DHT22;55412;51.350;17.056;2023-02-11T09:48:19;4.80;87.20
68433;DHT22;55412;51.350;17.056;2023-02-11T09:50:50;4.80;86.60
68433;DHT22;55412;51.350;17.056;2023-02-11T09:53:24;4.80;86.30
68433;DHT22;55412;51.350;17.056;2023-02-11T09:56:01;4.90;86.10
68433;DHT22;55412;51.350;17.056;2023-02-11T09:58:37;4.90;86.20
68433;DHT22;55412;51.350;17.056;2023-02-11T10:06:45;4.90;85.60
68433;DHT22;55412;51.350;17.056;2023-02-11T10:26:41;5.40;85.70
68433;DHT22;55412;51.350;17.056;2023-02-11T10:29:33;5.90;81.50
68433;DHT22;55412;51.350;17.056;2023-02-11T10:32:05;6.00;80.20
68433;DHT22;55412;51.350;17.056;2023-02-11T10:34:40;6.00;80.60
68433;DHT22;55412;51.350;17.056;2023-02-11T10:37:10;6.00;80.50
68433;DHT22;55412;51.350;17.056;2023-02-11T10:39:39;5.80;80.80
68433;DHT22;55412;51.350;17.056;2023-02-11T10:42:09;5.70;81.50
68433;DHT22;55412;51.350;17.056;2023-02-11T10:56:02;5.70;82.50
68433;DHT22;55412;51.350;17.056;2023-02-11T10:58:43;5.70;81.70
68433;DHT22;55412;51.350;17.056;2023-02-11T11:01:20;5.70;82.40
68433;DHT22;55412;51.350;17.056;2023-02-11T11:03:49;5.60;82.70
68433;DHT22;55412;51.350;17.056;2023-02-11T11:06:16;5.50;83.60
68433;DHT22;55412;51.350;17.056;2023-02-11T11:08:54;5.40;84.40
68433;DHT22;55412;51.350;17.056;2023-02-11T11:11:22;5.40;84.30
68433;DHT22;55412;51.350;17.056;2023-02-11T11:13:54;5.30;84.90
68433;DHT22;55412;51.350;17.056;2023-02-11T11:16:23;5.30;86.00
68433;DHT22;55412;51.350;17.056;2023-02-11T11:18:53;5.40;86.20
68433;DHT22;55412;51.350;17.056;2023-02-11T11:21:48;5.40;85.90
68433;DHT22;55412;51.350;17.056;2023-02-11T11:24:24;5.50;86.00
68433;DHT22;55412;51.350;17.056;2023-02-11T11:27:00;5.50;85.70
68433;DHT22;55412;51.350;17.056;2023-02-11T11:29:37;5.50;85.70
68433;DHT22;55412;51.350;17.056;2023-02-11T11:32:23;5.50;85.70
68433;DHT22;55412;51.350;17.056;2023-02-11T11:34:54;5.50;85.70
68433;DHT22;55412;51.350;17.056;2023-02-11T11:37:27;5.50;85.60
68433;DHT22;55412;51.350;17.056;2023-02-11T11:43:05;5.40;85.70
68433;DHT22;55412;51.350;17.056;2023-02-11T11:45:37;5.40;86.40
68433;DHT22;55412;51.350;17.056;2023-02-11T11:48:15;5.40;85.90
68433;DHT22;55412;51.350;17.056;2023-02-11T11:50:55;5.40;86.40
68433;DHT22;55412;51.350;17.056;2023-02-11T11:53:39;5.40;86.70
68433;DHT22;55412;51.350;17.056;2023-02-11T11:56:23;5.40;87.20
68433;DHT22;55412;51.350;17.056;2023-02-11T11:58:51;5.50;87.90
68433;DHT22;55412;51.350;17.056;2023-02-11T12:04:58;5.60;87.20
68433;DHT22;55412;51.350;17.056;2023-02-11T12:07:42;5.60;87.10
68433;DHT22;55412;51.350;17.056;2023-02-11T12:10:41;5.60;87.10
68433;DHT22;55412;51.350;17.056;2023-02-11T12:16:03;5.60;87.00
68433;DHT22;55412;51.350;17.056;2023-02-11T12:18:58;5.70;86.50
68433;DHT22;55412;51.350;17.056;2023-02-11T12:24:44;5.80;85.90
68433;DHT22;55412;51.350;17.056;2023-02-11T12:48:04;5.80;85.00
68433;DHT22;55412;51.350;17.056;2023-02-11T12:51:04;5.80;84.90
68433;DHT22;55412;51.350;17.056;2023-02-11T12:54:03;5.80;84.80
68433;DHT22;55412;51.350;17.056;2023-02-11T12:57:07;5.80;85.10
68433;DHT22;55412;51.350;17.056;2023-02-11T13:00:06;5.70;85.10
68433;DHT22;55412;51.350;17.056;2023-02-11T13:03:03;5.70;85.10
68433;DHT22;55412;51.350;17.056;2023-02-11T13:05:48;5.70;85.10
68433;DHT22;55412;51.350;17.056;2023-02-11T13:08:45;5.70;85.10
68433;DHT22;55412;51.350;17.056;2023-02-11T13:11:23;5.70;85.30
68433;DHT22;55412;51.350;17.056;2023-02-11T13:13:56;5.70;84.90
68433;DHT22;55412;51.350;17.056;2023-02-11T13:16:45;5.70;85.00
68433;DHT22;55412;51.350;17.056;2023-02-11T13:28:32;5.80;84.10
68433;DHT22;55412;51.350;17.056;2023-02-11T13:31:21;5.80;84.30
68433;DHT22;55412;51.350;17.056;2023-02-11T13:33:51;5.80;84.50
68433;DHT22;55412;51.350;17.056;2023-02-11T13:36:23;5.80;84.30
68433;DHT22;55412;51.350;17.056;2023-02-11T13:38:57;5.80;84.20
68433;DHT22;55412;51.350;17.056;2023-02-11T13:41:37;5.90;84.30
68433;DHT22;55412;51.350;17.056;2023-02-11T13:44:22;5.90;84.10
68433;DHT22;55412;51.350;17.056;2023-02-11T13:47:01;5.90;84.10
68433;DHT22;55412;51.350;17.056;2023-02-11T13:49:40;5.80;84.30
68433;DHT22;55412;51.350;17.056;2023-02-11T13:52:34;5.90;84.50
68433;DHT22;55412;51.350;17.056;2023-02-11T13:55:22;5.80;84.30
68433;DHT22;55412;51.350;17.056;2023-02-11T14:00:53;5.80;84.90
68433;DHT22;55412;51.350;17.056;2023-02-11T14:03:29;5.80;84.90
68433;DHT22;55412;51.350;17.056;2023-02-11T14:06:35;5.70;85.50
68433;DHT22;55412;51.350;17.056;2023-02-11T14:09:38;5.70;85.70
68433;DHT22;55412;51.350;17.056;2023-02-11T14:12:30;5.70;86.20
68433;DHT22;55412;51.350;17.056;2023-02-11T14:15:17;5.70;86.50
68433;DHT22;55412;51.350;17.056;2023-02-11T14:17:45;5.60;86.70
68433;DHT22;55412;51.350;17.056;2023-02-11T14:20:42;5.70;86.70
68433;DHT22;55412;51.350;17.056;2023-02-11T14:23:21;5.60;87.00
68433;DHT22;55412;51.350;17.056;2023-02-11T14:38:05;5.50;90.60
68433;DHT22;55412;51.350;17.056;2023-02-11T14:40:45;5.50;92.40
68433;DHT22;55412;51.350;17.056;2023-02-11T14:43:24;5.50;94.80
68433;DHT22;55412;51.350;17.056;2023-02-11T14:45:55;5.40;96.40
68433;DHT22;55412;51.350;17.056;2023-02-11T14:48:29;5.30;97.70
68433;DHT22;55412;51.350;17.056;2023-02-11T14:51:09;5.30;99.10
68433;DHT22;55412;51.350;17.056;2023-02-11T14:53:44;5.30;99.90
68433;DHT22;55412;51.350;17.056;2023-02-11T14:56:23;5.30;99.90
68433;DHT22;55412;51.350;17.056;2023-02-11T14:58:52;5.30;99.90
68433;DHT22;55412;51.350;17.056;2023-02-11T15:01:29;5.30;99.90
68433;DHT22;55412;51.350;17.056;2023-02-11T15:04:05;5.30;99.90
68433;DHT22;55412;51.350;17.056;2023-02-11T15:06:50;5.20;99.90
68433;DHT22;55412;51.350;17.056;2023-02-11T15:09:33;5.10;99.90
68433;DHT22;55412;51.350;17.056;2023-02-11T15:12:19;5.10;99.90
68433;DHT22;55412;51.350;17.056;2023-02-11T15:14:59;5.10;99.90
68433;DHT22;55412;51.350;17.056;2023-02-11T15:17:30;5.00;99.90
68433;DHT22;55412;51.350;17.056;2023-02-11T15:20:00;5.00;99.90
68433;DHT22;55412;51.350;17.056;2023-02-11T15:22:32;5.00;99.90
68433;DHT22;55412;51.350;17.056;2023-02-11T15:25:10;4.90;99.90
68433;DHT22;55412;51.350;17.056;2023-02-11T15:27:53;4.90;99.90
68433;DHT22;55412;51.350;17.056;2023-02-11T15:32:58;4.90;99.90
68433;DHT22;55412;51.350;17.056;2023-02-11T15:35:33;4.90;99.90
68433;DHT22;55412;51.350;17.056;2023-02-11T15:38:03;4.90;99.90
68433;DHT22;55412;51.350;17.056;2023-02-11T15:40:33;4.90;99.90
68433;DHT22;55412;51.350;17.056;2023-02-11T15:43:09;4.90;99.90
68433;DHT22;55412;51.350;17.056;2023-02-11T15:45:59;4.90;99.90
68433;DHT22;55412;51.350;17.056;2023-02-11T15:48:41;4.80;99.90
68433;DHT22;55412;51.350;17.056;2023-02-11T15:53:54;4.80;99.90
68433;DHT22;55412;51.350;17.056;2023-02-11T15:59:26;4.80;99.90
68433;DHT22;55412;51.350;17.056;2023-02-11T16:02:19;4.80;99.90
68433;DHT22;55412;51.350;17.056;2023-02-11T16:05:07;4.80;99.90
68433;DHT22;55412;51.350;17.056;2023-02-11T16:07:49;4.90;99.90
68433;DHT22;55412;51.350;17.056;2023-02-11T16:10:32;4.90;99.90
68433;DHT22;55412;51.350;17.056;2023-02-11T16:20:59;4.90;99.90
68433;DHT22;55412;51.350;17.056;2023-02-11T16:23:38;5.00;99.90
68433;DHT22;55412;51.350;17.056;2023-02-11T16:26:41;5.00;99.90
68433;DHT22;55412;51.350;17.056;2023-02-11T16:29:16;5.00;99.90
68433;DHT22;55412;51.350;17.056;2023-02-11T16:32:07;5.00;99.90
68433;DHT22;55412;51.350;17.056;2023-02-11T16:34:36;5.00;99.90
68433;DHT22;55412;51.350;17.056;2023-02-11T16:37:04;5.00;99.90
68433;DHT22;55412;51.350;17.056;2023-02-11T16:39:34;5.00;99.90
68433;DHT22;55412;51.350;17.056;2023-02-11T16:42:02;5.10;99.90
68433;DHT22;55412;51.350;17.056;2023-02-11T16:44:33;5.00;99.90
68433;DHT22;55412;51.350;17.056;2023-02-11T16:47:02;5.00;99.90
68433;DHT22;55412;51.350;17.056;2023-02-11T16:49:39;5.00;99.90
68433;DHT22;55412;51.350;17.056;2023-02-11T16:52:11;5.00;99.90
68433;DHT22;55412;51.350;17.056;2023-02-11T16:54:39;5.00;99.90
68433;DHT22;55412;51.350;17.056;2023-02-11T16:57:24;5.00;99.90
68433;DHT22;55412;51.350;17.056;2023-02-11T16:59:51;5.00;99.90
68433;DHT22;55412;51.350;17.056;2023-02-11T17:02:21;5.00;99.90
68433;DHT22;55412;51.350;17.056;2023-02-11T17:04:55;5.00;99.90
68433;DHT22;55412;51.350;17.056;2023-02-11T17:07:24;5.00;99.90
68433;DHT22;55412;51.350;17.056;2023-02-11T17:09:51;5.00;99.90
68433;DHT22;55412;51.350;17.056;2023-02-11T17:12:20;5.00;99.90
68433;DHT22;55412;51.350;17.056;2023-02-11T17:14:46;5.00;99.90
68433;DHT22;55412;51.350;17.056;2023-02-11T17:17:12;5.00;99.90
68433;DHT22;55412;51.350;17.056;2023-02-11T17:19:39;5.00;99.90
68433;DHT22;55412;51.350;17.056;2023-02-11T17:22:05;5.00;99.90
68433;DHT22;55412;51.350;17.056;2023-02-11T17:24:31;4.90;99.90
68433;DHT22;55412;51.350;17.056;2023-02-11T17:26:57;4.90;99.90
68433;DHT22;55412;51.350;17.056;2023-02-11T17:29:24;4.90;99.90
68433;DHT22;55412;51.350;17.056;2023-02-11T17:31:52;4.90;99.90
68433;DHT22;55412;51.350;17.056;2023-02-11T17:34:19;4.90;99.90
68433;DHT22;55412;51.350;17.056;2023-02-11T17:36:46;4.90;99.90
68433;DHT22;55412;51.350;17.056;2023-02-11T17:39:13;4.90;99.90
68433;DHT22;55412;51.350;17.056;2023-02-11T17:41:39;4.90;99.90
68433;DHT22;55412;51.350;17.056;2023-02-11T17:44:07;4.90;99.90
68433;DHT22;55412;51.350;17.056;2023-02-11T17:46:34;4.90;99.90
68433;DHT22;55412;51.350;17.056;2023-02-11T17:49:01;4.90;99.90
68433;DHT22;55412;51.350;17.056;2023-02-11T17:51:30;4.90;99.90
68433;DHT22;55412;51.350;17.056;2023-02-11T17:53:59;4.90;99.90
68433;DHT22;55412;51.350;17.056;2023-02-11T17:56:27;4.90;99.90
68433;DHT22;55412;51.350;17.056;2023-02-11T17:58:55;4.90;99.90
68433;DHT22;55412;51.350;17.056;2023-02-11T18:01:22;4.90;99.90
68433;DHT22;55412;51.350;17.056;2023-02-11T18:03:48;5.00;99.90
68433;DHT22;55412;51.350;17.056;2023-02-11T18:06:15;5.00;99.90
68433;DHT22;55412;51.350;17.056;2023-02-11T18:08:44;5.00;99.90
68433;DHT22;55412;51.350;17.056;2023-02-11T18:11:11;5.00;99.90
68433;DHT22;55412;51.350;17.056;2023-02-11T18:13:39;5.00;99.90
68433;DHT22;55412;51.350;17.056;2023-02-11T18:16:07;5.00;99.90
68433;DHT22;55412;51.350;17.056;2023-02-11T18:18:33;5.10;99.90
68433;DHT22;55412;51.350;17.056;2023-02-11T18:21:01;5.10;99.90
68433;DHT22;55412;51.350;17.056;2023-02-11T18:23:29;5.10;99.90